Time;durP1;ratioP1;P1;durP2;ratioP2;P2;SDS_P1;SDS_P2;PMS_P1;PMS_P2;Temp;Humidity;BMP_temperature;BMP_pressure;BME280_temperature;BME280_humidity;BME280_pressure;Samples;Min_cycle;Max_cycle;Signal;HPM_P1;HPM_P2
2024/04/11 00:00:39;;;;;;;22.80;13.10;;;;;;;17.34;47.83;100734.30;107776;1260;61118;-67
2024/04/11 00:03:07;;;;;;;22.80;14.50;;;;;;;17.41;47.63;100732.34;107758;1256;61087;-66
2024/04/11 00:05:39;;;;;;;26.10;16.10;;;;;;;17.34;47.82;100735.18;107752;1260;74704;-66
2024/04/11 00:08:07;;;;;;;22.00;14.30;;;;;;;17.31;47.83;100734.98;107715;1256;70178;-65
2024/04/11 00:10:34;;;;;;;25.90;14.90;;;;;;;17.25;47.95;100734.81;107734;1256;72011;-66
2024/04/11 00:13:01;;;;;;;27.50;15.40;;;;;;;17.17;48.12;100731.86;107798;1256;61623;-67
2024/04/11 00:15:29;;;;;;;23.10;14.60;;;;;;;17.18;48.11;100737.30;107837;1256;61014;-66
2024/04/11 00:17:56;;;;;;;24.30;15.80;;;;;;;17.15;48.00;100733.23;107841;1256;73414;-66
2024/04/11 00:20:23;;;;;;;22.20;14.60;;;;;;;17.05;48.27;100740.34;107848;1256;70035;-66
2024/04/11 00:22:51;;;;;;;33.60;17.70;;;;;;;17.06;48.30;100743.29;107801;1256;71694;-66
2024/04/11 00:25:19;;;;;;;29.70;16.80;;;;;;;17.08;48.20;100743.56;107882;1256;61707;-66
2024/04/11 00:27:47;;;;;;;25.50;16.70;;;;;;;17.00;48.31;100745.53;107859;1256;61277;-66
2024/04/11 00:30:14;;;;;;;30.10;16.60;;;;;;;16.91;48.51;100743.54;107834;1256;74737;-66
2024/04/11 00:32:42;;;;;;;24.20;15.00;;;;;;;16.86;48.59;100741.70;107776;1256;70614;-67
2024/04/11 00:35:10;;;;;;;25.10;16.30;;;;;;;16.76;48.73;100742.22;107875;1254;72445;-66
2024/04/11 00:37:37;;;;;;;26.20;17.40;;;;;;;16.72;48.84;100742.04;107957;1254;61441;-66
2024/04/11 00:40:05;;;;;;;20.70;14.40;;;;;;;16.75;48.73;100745.96;107991;1254;60966;-66
2024/04/11 00:42:34;;;;;;;25.70;17.40;;;;;;;16.75;48.81;100744.19;107985;1254;73331;-66
2024/04/11 00:45:01;;;;;;;23.20;15.50;;;;;;;16.75;48.83;100742.27;107892;1254;70756;-67
2024/04/11 00:47:28;;;;;;;22.10;13.70;;;;;;;16.72;48.89;100744.34;107891;1254;72761;-66
2024/04/11 00:49:56;;;;;;;26.50;16.10;;;;;;;16.85;48.72;100746.88;107740;1254;61865;-66
2024/04/11 00:52:23;;;;;;;22.30;14.50;;;;;;;16.84;48.75;100746.42;107960;1260;59631;-66
2024/04/11 00:54:51;;;;;;;27.50;16.50;;;;;;;16.84;48.51;100744.84;107954;1254;73463;-68
2024/04/11 00:57:19;;;;;;;24.50;16.40;;;;;;;16.91;48.50;100745.35;107957;1254;69964;-67
2024/04/11 00:59:47;;;;;;;21.60;13.70;;;;;;;17.13;47.94;100747.34;108062;1254;71273;-67
2024/04/11 01:02:15;;;;;;;23.00;15.40;;;;;;;17.06;48.11;100754.09;108006;1254;62008;-67
2024/04/11 01:04:44;;;;;;;25.40;15.10;;;;;;;16.80;48.51;100755.15;108002;1254;61112;-67
2024/04/11 01:07:12;;;;;;;20.70;14.00;;;;;;;16.76;48.66;100758.20;107928;1254;74890;-66
2024/04/11 01:09:45;;;;;;;25.30;15.50;;;;;;;16.55;48.90;100759.59;108050;1254;69955;-66
2024/04/11 01:12:14;;;;;;;20.40;14.00;;;;;;;16.48;49.09;100761.72;108026;1254;71636;-66
2024/04/11 01:14:43;;;;;;;23.50;16.30;;;;;;;16.49;49.07;100758.13;107929;1254;61096;-66
2024/04/11 01:17:16;;;;;;;23.60;15.40;;;;;;;16.35;49.44;100758.70;108004;1259;61134;-67
2024/04/11 01:19:44;;;;;;;20.30;13.70;;;;;;;16.43;49.33;100758.78;107927;1255;73854;-67
2024/04/11 01:22:11;;;;;;;22.70;15.50;;;;;;;16.46;49.19;100762.21;108121;1256;70555;-67
2024/04/11 01:24:42;;;;;;;22.90;13.90;;;;;;;16.48;49.23;100759.25;107960;1255;71440;-66
2024/04/11 01:27:11;;;;;;;24.30;14.70;;;;;;;16.44;49.21;100758.39;107953;1254;61261;-67
2024/04/11 01:29:38;;;;;;;22.30;15.60;;;;;;;16.61;48.97;100756.11;107973;1254;61292;-67
2024/04/11 01:32:06;;;;;;;21.90;15.50;;;;;;;16.47;49.18;100755.74;107954;1259;74794;-67
2024/04/11 01:34:34;;;;;;;27.40;16.50;;;;;;;16.47;49.23;100755.23;107940;1254;69580;-67
2024/04/11 01:37:02;;;;;;;22.70;14.60;;;;;;;16.52;48.93;100758.34;107911;1256;70492;-66
2024/04/11 01:39:31;;;;;;;26.80;16.20;;;;;;;16.51;48.83;100758.20;107819;1256;62363;-66
2024/04/11 01:41:59;;;;;;;26.10;15.90;;;;;;;16.46;49.05;100754.57;107863;1256;61065;-66
2024/04/11 01:44:27;;;;;;;23.20;14.10;;;;;;;16.55;48.74;100757.09;107731;1256;73735;-66
2024/04/11 01:46:57;;;;;;;24.50;15.50;;;;;;;16.39;49.09;100756.35;107859;1256;70059;-65
2024/04/11 01:50:57;;;;;;;23.20;15.40;;;;;;;15.34;51.80;100760.86;107001;1282;613216;-93
2024/04/11 01:53:25;;;;;;;26.90;16.60;;;;;;;15.92;50.33;100763.52;108842;1263;60622;-95
2024/04/11 01:56:01;;;;;;;22.00;16.30;;;;;;;15.89;50.23;100761.17;108921;1263;59532;-94
2024/04/11 01:58:28;;;;;;;22.90;15.80;;;;;;;15.98;50.07;100762.31;109137;1260;71735;-94
2024/04/11 02:01:13;;;;;;;21.00;14.90;;;;;;;15.96;50.13;100760.83;109112;1259;69055;-92
2024/04/11 02:03:41;;;;;;;22.90;14.00;;;;;;;15.85;50.26;100758.33;109052;1256;162432;-92
2024/04/11 02:06:11;;;;;;;22.10;15.80;;;;;;;15.79;50.44;100756.86;109324;1256;60611;-92
2024/04/11 02:08:41;;;;;;;23.00;15.40;;;;;;;15.69;50.67;100758.36;109247;1256;58023;-94
2024/04/11 02:11:08;;;;;;;28.30;16.40;;;;;;;15.86;50.43;100761.30;109319;1257;71766;-93
2024/04/11 02:13:41;;;;;;;22.60;15.70;;;;;;;15.78;50.69;100758.52;109324;1256;68937;-94
2024/04/11 02:16:11;;;;;;;20.50;15.00;;;;;;;15.74;50.76;100757.10;109262;1256;71252;-92
2024/04/11 02:18:42;;;;;;;24.00;15.30;;;;;;;15.90;50.39;100758.27;109246;1256;60683;-94
2024/04/11 02:21:11;;;;;;;18.90;14.90;;;;;;;15.82;50.49;100760.43;109228;1256;59477;-92
2024/04/11 02:23:39;;;;;;;21.60;15.30;;;;;;;15.63;50.97;100758.31;109390;1256;72388;-91
2024/04/11 02:26:09;;;;;;;22.70;15.10;;;;;;;15.78;50.59;100759.05;109109;1257;70352;-95
2024/04/11 02:28:39;;;;;;;22.80;15.50;;;;;;;15.74;50.53;100754.27;108185;1256;72629;-94
2024/04/11 02:31:07;;;;;;;20.30;13.90;;;;;;;15.74;50.77;100759.23;108175;1256;60683;-94
2024/04/11 02:33:35;;;;;;;20.50;14.30;;;;;;;15.82;50.46;100757.46;108206;1257;60319;-94
2024/04/11 02:36:06;;;;;;;31.90;17.30;;;;;;;15.81;50.57;100761.02;108436;1253;73853;-94
2024/04/11 02:38:34;;;;;;;26.40;16.60;;;;;;;15.96;50.30;100766.33;108409;1254;68800;-95
2024/04/11 02:41:01;;;;;;;22.70;14.60;;;;;;;15.92;50.32;100764.71;108642;1253;70546;-96
2024/04/11 02:43:31;;;;;;;27.10;16.90;;;;;;;15.94;50.13;100763.94;108800;1254;61043;-95
2024/04/11 02:45:59;;;;;;;22.30;15.90;;;;;;;15.92;50.20;100765.79;108507;1254;60142;-93
2024/04/11 02:48:28;;;;;;;27.70;15.30;;;;;;;16.00;49.90;100767.36;109009;1252;72650;-94
2024/04/11 02:50:57;;;;;;;26.80;16.00;;;;;;;15.80;50.26;100768.71;108939;1253;70112;-95
2024/04/11 02:53:28;;;;;;;23.60;17.00;;;;;;;15.72;50.42;100767.82;109009;1253;71179;-94
2024/04/11 02:56:17;;;;;;;20.90;14.30;;;;;;;15.58;50.64;100766.68;108543;1253;60386;-94
2024/04/11 02:59:18;;;;;;;23.80;15.90;;;;;;;15.66;50.59;100769.14;108374;1253;59076;-94
2024/04/11 03:01:46;;;;;;;43.90;18.10;;;;;;;15.65;50.59;100766.35;108495;1254;72987;-94
2024/04/11 03:04:21;;;;;;;29.60;17.30;;;;;;;15.62;50.61;100764.21;108473;1253;70283;-94
2024/04/11 03:06:50;;;;;;;31.40;15.60;;;;;;;15.76;50.37;100767.48;109194;1253;71570;-94
2024/04/11 03:09:26;;;;;;;21.50;12.90;;;;;;;15.73;50.63;100770.45;109160;1254;60515;-93
2024/04/11 03:11:55;;;;;;;32.00;17.00;;;;;;;15.58;50.93;100768.27;109245;1254;59150;-93
2024/04/11 03:14:26;;;;;;;24.00;15.70;;;;;;;15.46;51.19;100767.45;109603;1254;72842;-91
2024/04/11 03:16:54;;;;;;;28.20;16.20;;;;;;;15.52;51.08;100767.17;109614;1254;69016;-93
2024/04/11 03:19:22;;;;;;;24.30;14.20;;;;;;;15.59;50.92;100765.05;109643;1252;72502;-92
2024/04/11 03:21:51;;;;;;;33.40;16.70;;;;;;;15.72;50.80;100762.85;109433;1252;60476;-94
2024/04/11 03:24:19;;;;;;;36.10;17.50;;;;;;;15.80;50.70;100763.40;109633;1252;59068;-93
2024/04/11 03:26:47;;;;;;;21.60;14.00;;;;;;;15.79;50.68;100767.66;109423;1254;72491;-93
2024/04/11 03:29:19;;;;;;;24.20;16.80;;;;;;;15.75;50.80;100769.81;109460;1252;69280;-93
2024/04/11 03:31:50;;;;;;;27.10;17.10;;;;;;;15.84;50.68;100775.91;109500;1253;71352;-93
2024/04/11 03:34:21;;;;;;;26.40;16.50;;;;;;;16.05;50.40;100780.57;109373;1253;60976;-93
2024/04/11 03:36:54;;;;;;;29.50;16.80;;;;;;;16.09;50.28;100784.61;109534;1252;59166;-94
2024/04/11 03:39:25;;;;;;;24.00;16.60;;;;;;;16.26;50.01;100786.95;109288;1253;72439;-92
2024/04/11 03:41:57;;;;;;;26.80;16.10;;;;;;;16.24;50.07;100788.33;108834;1253;68604;-94
2024/04/11 03:44:24;;;;;;;29.00;16.30;;;;;;;16.18;50.30;100790.37;108747;1254;71249;-95
2024/04/11 03:46:53;;;;;;;18.20;13.50;;;;;;;16.21;50.29;100796.10;108661;1252;61119;-95
2024/04/11 03:49:28;;;;;;;24.80;17.40;;;;;;;16.36;50.06;100794.09;108610;1255;59198;-94
2024/04/11 03:52:05;;;;;;;22.80;14.90;;;;;;;16.47;49.65;100794.95;108557;1254;72329;-90
2024/04/11 03:54:35;;;;;;;25.10;16.90;;;;;;;16.54;49.56;100794.39;108252;1254;70495;-93
2024/04/11 03:57:07;;;;;;;31.00;18.80;;;;;;;16.59;49.45;100794.68;108478;1253;71596;-93
2024/04/11 03:59:40;;;;;;;21.80;16.50;;;;;;;16.75;49.35;100795.09;108406;1254;60378;-93
2024/04/11 04:02:19;;;;;;;24.10;15.40;;;;;;;17.02;48.99;100798.86;108330;1253;59587;-93
2024/04/11 04:04:49;;;;;;;21.70;16.60;;;;;;;17.38;49.17;100804.90;108523;1253;73670;-94
2024/04/11 04:07:23;;;;;;;27.20;17.30;;;;;;;17.92;48.89;100804.20;108497;1259;69048;-94
2024/04/11 04:09:56;;;;;;;24.70;15.30;;;;;;;18.58;47.71;100802.69;109508;1254;71893;-94
2024/04/11 04:12:38;;;;;;;29.70;15.70;;;;;;;18.86;46.89;100804.20;109432;1254;60477;-93
2024/04/11 04:15:08;;;;;;;25.70;14.90;;;;;;;19.12;46.08;100801.02;109706;1253;59068;-94
2024/04/11 04:17:37;;;;;;;;;;;;;;;19.48;45.61;100799.89;109567;1253;72841;-93
2024/04/11 04:20:09;;;;;;;19.50;13.20;;;;;;;19.86;45.00;100808.34;109531;1254;68730;-94
2024/04/11 04:22:55;;;;;;;22.80;12.40;;;;;;;20.30;43.89;100818.44;109383;1253;71394;-93
2024/04/11 04:25:29;;;;;;;23.70;11.90;;;;;;;20.77;43.07;100812.83;109018;1254;60519;-95
2024/04/11 04:28:03;;;;;;;19.80;11.50;;;;;;;21.32;41.73;100810.73;109196;1254;60341;-95
2024/04/11 04:30:33;;;;;;;;;;;;;;;21.83;40.43;100809.92;109414;1254;73192;-93
2024/04/11 04:33:04;;;;;;;21.40;9.80;;;;;;;22.07;39.73;100809.41;109621;1254;69401;-91
2024/04/11 04:35:33;;;;;;;22.50;9.60;;;;;;;22.62;39.24;100808.50;108987;1253;71486;-95
2024/04/11 04:38:03;;;;;;;17.10;8.90;;;;;;;23.10;38.40;100805.33;108303;1254;60412;-95
2024/04/11 04:40:32;;;;;;;18.10;9.10;;;;;;;23.55;37.74;100813.04;108233;1254;59709;-95
2024/04/11 04:43:02;;;;;;;15.00;8.70;;;;;;;23.76;37.17;100815.84;108448;1254;73061;-95
2024/04/11 04:45:36;;;;;;;14.20;8.70;;;;;;;23.99;36.88;100819.92;108150;1254;103232;-67
2024/04/11 04:48:03;;;;;;;17.80;8.80;;;;;;;24.21;36.45;100822.23;107969;1258;71491;-66
2024/04/11 04:50:30;;;;;;;20.20;8.90;;;;;;;24.36;35.88;100825.63;107978;1257;60379;-67
2024/04/11 04:53:01;;;;;;;14.50;8.50;;;;;;;24.46;35.85;100831.39;107934;1255;61155;-67
2024/04/11 04:55:27;;;;;;;17.70;9.50;;;;;;;24.64;35.60;100830.83;107901;1259;73872;-67
2024/04/11 04:57:55;;;;;;;21.50;9.10;;;;;;;24.81;35.30;100834.00;107844;1256;59224;-66
2024/04/11 05:00:24;;;;;;;21.30;8.70;;;;;;;25.05;34.96;100836.09;107824;1256;72734;-67
2024/04/11 05:02:54;;;;;;;14.60;8.80;;;;;;;25.20;34.76;100834.97;107603;1256;60404;-67
2024/04/11 05:05:21;;;;;;;16.30;9.10;;;;;;;25.42;34.44;100838.84;107850;1256;60396;-67
2024/04/11 05:07:52;;;;;;;20.70;9.00;;;;;;;25.51;34.06;100837.45;107819;1260;72694;-67
2024/04/11 05:10:20;;;;;;;15.10;8.40;;;;;;;25.63;34.00;100837.34;107862;1257;70170;-67
2024/04/11 05:12:49;;;;;;;17.00;8.40;;;;;;;25.77;33.93;100839.81;107838;1257;72535;-67
2024/04/11 05:15:17;;;;;;;14.50;8.40;;;;;;;26.10;33.62;100835.96;107850;1256;60362;-67
2024/04/11 05:17:45;;;;;;;16.70;8.70;;;;;;;26.27;33.30;100843.63;107897;1256;60396;-66
2024/04/11 05:20:21;;;;;;;17.70;8.70;;;;;;;26.36;32.95;100842.06;107938;1256;73691;-66
2024/04/11 05:22:51;;;;;;;20.80;8.60;;;;;;;26.35;32.80;100843.96;107902;1256;70265;-65
2024/04/11 05:25:17;;;;;;;15.80;8.60;;;;;;;26.18;33.13;100838.70;107688;1256;73130;-66
2024/04/11 05:27:44;;;;;;;18.20;8.40;;;;;;;26.05;33.36;100837.11;107922;1256;60329;-66
2024/04/11 05:30:11;;;;;;;16.40;8.40;;;;;;;26.36;33.05;100840.66;107753;1256;60293;-67
2024/04/11 05:32:43;;;;;;;16.00;8.30;;;;;;;26.71;32.54;100842.92;107923;1256;73928;-66
2024/04/11 05:35:11;;;;;;;16.80;8.30;;;;;;;27.03;32.17;100837.06;107945;1256;70302;-66
2024/04/11 05:37:41;;;;;;;12.60;8.20;;;;;;;27.31;31.88;100838.52;108007;1255;71215;-67
2024/04/11 05:40:08;;;;;;;12.40;8.00;;;;;;;27.49;31.61;100838.59;107960;1259;60568;-66
2024/04/11 05:42:44;;;;;;;12.00;7.50;;;;;;;27.74;31.31;100842.53;107915;1257;60370;-67
2024/04/11 05:45:19;;;;;;;14.90;7.80;;;;;;;27.97;31.08;100842.24;107893;1257;74005;-67
2024/04/11 05:47:46;;;;;;;12.20;7.60;;;;;;;28.23;30.59;100842.70;107934;1256;68877;-67
2024/04/11 05:50:15;;;;;;;12.00;7.60;;;;;;;28.34;30.29;100846.84;107897;1256;72500;-67
2024/04/11 05:52:43;;;;;;;9.30;7.00;;;;;;;28.32;30.42;100843.94;107885;1256;60384;-67
2024/04/11 05:55:12;;;;;;;17.10;8.30;;;;;;;28.52;30.10;100845.23;107855;1255;60428;-67
2024/04/11 05:57:41;;;;;;;15.70;8.10;;;;;;;28.73;29.96;100849.27;107901;1255;73640;-67
2024/04/11 06:00:11;;;;;;;15.10;7.40;;;;;;;28.77;29.79;100858.59;107874;1256;70064;-67
2024/04/11 06:02:40;;;;;;;17.10;7.80;;;;;;;28.86;29.82;100862.70;107931;1256;72565;-67
2024/04/11 06:05:09;;;;;;;12.10;6.50;;;;;;;29.08;29.70;100865.48;107921;1256;61087;-67
2024/04/11 06:07:39;;;;;;;19.40;7.60;;;;;;;29.32;29.37;100869.33;107900;1256;60095;-67
2024/04/11 06:10:06;;;;;;;13.90;7.60;;;;;;;29.44;29.00;100870.27;107888;1259;74779;-67
2024/04/11 06:12:33;;;;;;;8.80;6.80;;;;;;;29.44;28.95;100871.46;107836;1255;69771;-67
2024/04/11 06:15:02;;;;;;;10.30;7.00;;;;;;;29.33;29.29;100877.54;107860;1256;71348;-68
2024/04/11 06:17:31;;;;;;;11.60;6.60;;;;;;;29.42;29.22;100878.06;107826;1255;61169;-67
2024/04/11 06:20:01;;;;;;;12.30;6.90;;;;;;;29.64;29.05;100875.09;107895;1256;61116;-66
2024/04/11 06:22:28;;;;;;;13.00;6.90;;;;;;;30.19;28.60;100871.28;107898;1256;73914;-67
2024/04/11 06:24:55;;;;;;;11.50;6.90;;;;;;;30.54;28.37;100870.85;107911;1256;70491;-67
2024/04/11 06:27:22;;;;;;;13.00;7.20;;;;;;;30.99;27.95;100872.77;107736;1257;72761;-67
2024/04/11 06:29:49;;;;;;;12.10;6.70;;;;;;;31.48;27.31;100868.90;107881;1256;61129;-67
2024/04/11 06:32:17;;;;;;;10.50;6.60;;;;;;;31.67;26.82;100871.00;107866;1256;61286;-67
2024/04/11 06:34:44;;;;;;;10.20;6.20;;;;;;;32.09;26.42;100867.51;107834;1258;74674;-68
2024/04/11 06:37:11;;;;;;;12.00;6.40;;;;;;;32.41;26.27;100872.06;107887;1256;70654;-67
2024/04/11 06:39:38;;;;;;;10.30;6.10;;;;;;;32.73;25.72;100877.94;107861;1256;72724;-68
2024/04/11 06:42:14;;;;;;;10.00;6.10;;;;;;;32.88;25.49;100886.67;107846;1255;61260;-68
2024/04/11 06:44:41;;;;;;;8.60;5.60;;;;;;;32.73;25.35;100890.79;107908;1256;61079;-68
2024/04/11 06:47:09;;;;;;;17.90;6.40;;;;;;;32.55;25.99;100887.86;107916;1256;74506;-68
2024/04/11 06:49:47;;;;;;;11.70;5.90;;;;;;;32.78;25.77;100886.17;107924;1256;68487;-68
2024/04/11 06:52:16;;;;;;;11.40;6.30;;;;;;;33.17;25.11;100892.63;107881;1259;72652;-68
2024/04/11 06:54:46;;;;;;;15.70;6.10;;;;;;;33.15;25.31;100896.66;107903;1256;61110;-68
2024/04/11 06:57:14;;;;;;;13.70;6.40;;;;;;;33.00;25.38;100893.39;107947;1255;61209;-67
2024/04/11 06:59:41;;;;;;;13.70;6.20;;;;;;;33.13;25.31;100898.55;107959;1256;66196;-68
2024/04/11 07:02:07;;;;;;;12.30;6.30;;;;;;;33.14;25.30;100899.54;107994;1256;68734;-67
2024/04/11 07:04:34;;;;;;;12.10;5.70;;;;;;;33.58;24.82;100900.40;107998;1259;73597;-68
2024/04/11 07:07:08;;;;;;;12.30;6.00;;;;;;;33.92;24.46;100904.55;107945;1255;61014;-67
2024/04/11 07:09:37;;;;;;;10.30;6.50;;;;;;;33.82;24.49;100908.89;107991;1256;61234;-67
2024/04/11 07:12:10;;;;;;;7.10;5.20;;;;;;;33.80;24.87;100912.30;107977;1257;74791;-67
2024/04/11 07:14:38;;;;;;;10.00;5.70;;;;;;;33.93;24.94;100912.30;107914;1257;70102;-68
2024/04/11 07:17:11;;;;;;;15.40;6.00;;;;;;;33.93;24.68;100913.73;107880;1256;65352;-68
2024/04/11 07:19:39;;;;;;;8.40;5.40;;;;;;;34.21;24.43;100912.08;107868;1256;61079;-68
2024/04/11 07:22:08;;;;;;;9.10;5.90;;;;;;;34.45;24.30;100912.17;107944;1255;61081;-67
2024/04/11 07:24:37;;;;;;;8.70;5.50;;;;;;;34.49;23.93;100912.77;107897;1256;66152;-68
2024/04/11 07:27:11;;;;;;;12.30;6.00;;;;;;;34.46;24.27;100914.04;107909;1256;61910;-67
2024/04/11 07:29:41;;;;;;;10.40;6.10;;;;;;;34.26;24.23;100915.67;107920;1256;64209;-68
2024/04/11 07:32:07;;;;;;;10.70;6.10;;;;;;;34.03;24.47;100923.30;107880;1255;60393;-68
2024/04/11 07:34:34;;;;;;;12.80;5.90;;;;;;;34.07;24.72;100928.09;107930;1257;59955;-68
2024/04/11 07:37:01;;;;;;;12.30;6.30;;;;;;;34.14;24.60;100927.00;107818;1256;65958;-68
2024/04/11 07:39:29;;;;;;;10.70;6.10;;;;;;;34.32;24.38;100921.71;107870;1256;61713;-68
2024/04/11 07:42:18;;;;;;;6.00;5.30;;;;;;;34.52;24.20;100920.86;107874;1256;64276;-68
2024/04/11 07:44:45;;;;;;;10.90;5.60;;;;;;;34.64;24.11;100924.07;107911;1256;61563;-68
2024/04/11 07:47:13;;;;;;;11.90;5.60;;;;;;;34.86;23.93;100919.58;107908;1256;61132;-68
2024/04/11 07:49:47;;;;;;;8.70;5.80;;;;;;;35.10;23.98;100928.92;107871;1257;65928;-67
2024/04/11 07:52:14;;;;;;;13.90;5.50;;;;;;;35.13;23.69;100928.29;107890;1256;61202;-68
2024/04/11 07:54:42;;;;;;;10.60;5.70;;;;;;;35.04;23.59;100932.64;107871;1256;64138;-67
2024/04/11 07:57:19;;;;;;;9.30;5.40;;;;;;;35.15;23.59;100935.61;107910;1256;61576;-68
2024/04/11 07:59:46;;;;;;;11.20;5.80;;;;;;;35.20;23.79;100938.73;107883;1256;61126;-67
2024/04/11 08:02:14;;;;;;;9.90;5.50;;;;;;;35.29;23.66;100937.71;107841;1256;64712;-66
2024/04/11 08:04:41;;;;;;;7.80;5.70;;;;;;;35.60;23.45;100935.88;107884;1260;61803;-67
2024/04/11 08:07:09;;;;;;;8.60;5.30;;;;;;;35.90;23.11;100934.23;107826;1257;63999;-67
2024/04/11 08:09:44;;;;;;;9.80;5.80;;;;;;;36.08;22.78;100932.83;107879;1256;61253;-68
2024/04/11 08:12:11;;;;;;;8.80;5.70;;;;;;;36.21;22.73;100934.69;107864;1256;61142;-67
2024/04/11 08:14:38;;;;;;;7.80;5.40;;;;;;;36.09;22.63;100930.94;107938;1256;66046;-68
2024/04/11 08:17:07;;;;;;;8.50;5.50;;;;;;;35.89;22.86;100935.81;107890;1260;61719;-68
2024/04/11 08:19:33;;;;;;;9.00;5.40;;;;;;;36.09;22.96;100938.03;107838;1257;62833;-67
2024/04/11 08:22:11;;;;;;;9.20;5.50;;;;;;;36.22;23.05;100938.09;107844;1256;61386;-68
2024/04/11 08:24:37;;;;;;;12.50;5.40;;;;;;;36.21;22.91;100940.30;107864;1256;61260;-67
2024/04/11 08:27:08;;;;;;;9.90;5.60;;;;;;;36.04;23.05;100939.38;107864;1260;65715;-67
2024/04/11 08:29:35;;;;;;;12.40;5.80;;;;;;;36.14;22.90;100940.02;107881;1256;61480;-67
2024/04/11 08:32:02;;;;;;;11.30;4.80;;;;;;;35.77;22.89;100938.57;107862;1256;64205;-71
2024/04/11 08:34:30;;;;;;;12.30;6.00;;;;;;;35.45;23.25;100937.70;107846;1256;61122;-68
2024/04/11 08:36:58;;;;;;;13.30;5.90;;;;;;;35.51;23.45;100937.09;107915;1259;59132;-68
2024/04/11 08:39:27;;;;;;;8.30;5.60;;;;;;;35.50;23.42;100935.54;107948;1256;66121;-68
2024/04/11 08:41:54;;;;;;;8.50;5.50;;;;;;;35.52;23.21;100939.77;107966;1255;61507;-66
2024/04/11 08:44:22;;;;;;;9.50;5.80;;;;;;;35.82;23.17;100942.94;107910;1256;65315;-67
2024/04/11 08:46:48;;;;;;;8.60;5.40;;;;;;;36.06;23.04;100937.97;107912;1256;61533;-67
2024/04/11 08:49:15;;;;;;;7.50;5.30;;;;;;;36.27;22.58;100943.33;107616;1256;61140;-68
2024/04/11 08:51:42;;;;;;;8.60;5.80;;;;;;;36.43;22.79;100948.89;107869;1256;66149;-68
2024/04/11 08:54:09;;;;;;;10.70;5.60;;;;;;;36.36;22.94;100949.84;107913;1256;61991;-68
2024/04/11 08:56:36;;;;;;;7.80;4.80;;;;;;;36.09;22.90;100950.97;107930;1257;64191;-68
2024/04/11 08:59:05;;;;;;;10.00;5.10;;;;;;;35.87;23.23;100950.44;107931;1256;61082;-68
2024/04/11 09:01:31;;;;;;;9.20;5.80;;;;;;;35.81;23.57;100951.04;107782;1255;61164;-68
2024/04/11 09:03:58;;;;;;;9.70;5.80;;;;;;;35.72;23.43;100955.92;107889;1256;66237;-68
2024/04/11 09:06:26;;;;;;;6.70;5.10;;;;;;;35.69;23.77;100954.60;107923;1255;63022;-68
2024/04/11 09:08:53;;;;;;;5.60;4.80;;;;;;;35.73;23.81;100951.66;107873;1256;64116;-68
2024/04/11 09:11:25;;;;;;;11.50;5.20;;;;;;;35.76;23.83;100950.51;107947;1255;60469;-67
2024/04/11 09:14:00;;;;;;;9.70;5.30;;;;;;;35.72;23.87;100949.38;107815;1256;61019;-67
2024/04/11 09:16:27;;;;;;;9.50;5.70;;;;;;;35.61;23.76;100955.88;107874;1256;66980;-67
2024/04/11 09:19:00;;;;;;;9.30;5.90;;;;;;;35.47;24.14;100955.29;107958;1256;68685;-68
2024/04/11 09:21:28;;;;;;;8.80;5.90;;;;;;;35.33;24.19;100955.85;107890;1259;62703;-68
2024/04/11 09:23:54;;;;;;;10.70;5.80;;;;;;;35.29;24.07;100959.20;107883;1256;61186;-67
2024/04/11 09:26:21;;;;;;;9.00;5.10;;;;;;;35.37;24.11;100961.77;107899;1256;61234;-67
2024/04/11 09:28:50;;;;;;;11.10;5.00;;;;;;;35.55;24.00;100957.05;107930;1257;64914;-67
2024/04/11 09:31:19;;;;;;;6.80;4.70;;;;;;;35.63;23.94;100954.48;107994;1256;61607;-67
2024/04/11 09:33:50;;;;;;;6.30;4.90;;;;;;;35.76;23.81;100955.98;107886;1256;72741;-68
2024/04/11 09:36:17;;;;;;;8.10;5.00;;;;;;;35.77;23.57;100958.98;107883;1256;59335;-67
2024/04/11 09:38:44;;;;;;;10.50;5.10;;;;;;;35.95;23.77;100958.58;107852;1256;61206;-68
2024/04/11 09:41:11;;;;;;;11.60;5.70;;;;;;;36.02;23.56;100956.89;107643;1256;67634;-68
2024/04/11 09:43:41;;;;;;;8.50;5.30;;;;;;;35.81;23.83;100964.02;107862;1256;62994;-68
2024/04/11 09:46:08;;;;;;;;;;;;;;;35.80;23.97;100964.54;107913;1256;65145;-67
2024/04/11 09:48:41;;;;;;;10.90;5.60;;;;;;;36.01;23.70;100965.44;107878;1256;61254;-67
2024/04/11 09:51:12;;;;;;;7.20;4.80;;;;;;;35.93;23.60;100975.48;107673;1257;59478;-68
2024/04/11 09:53:41;;;;;;;10.40;5.00;;;;;;;35.79;23.70;100969.33;107880;1260;66183;-66
2024/04/11 09:56:15;;;;;;;9.60;4.90;;;;;;;35.71;24.00;100976.36;107677;1259;71706;-68
2024/04/11 09:58:43;;;;;;;7.60;4.60;;;;;;;35.31;24.33;100976.35;107670;1262;64161;-67
2024/04/11 10:01:20;;;;;;;10.30;4.80;;;;;;;35.44;24.24;100975.65;107645;1257;61122;-68
2024/04/11 10:03:47;;;;;;;7.10;4.60;;;;;;;35.45;24.07;100979.20;107881;1256;60495;-68
2024/04/11 10:06:16;;;;;;;9.70;5.00;;;;;;;34.98;24.58;100976.08;107837;1256;66049;-67
2024/04/11 10:08:45;;;;;;;7.60;4.50;;;;;;;34.84;24.78;100976.14;107886;1258;61708;-67
2024/04/11 10:11:12;;;;;;;11.50;5.10;;;;;;;34.96;24.60;100974.82;107955;1257;62854;-67
2024/04/11 10:13:44;;;;;;;12.00;4.40;;;;;;;35.04;24.53;100971.48;107833;1256;59182;-67
2024/04/11 10:16:29;;;;;;;9.50;4.80;;;;;;;35.18;24.62;100968.20;107889;1256;61147;-67
2024/04/11 10:19:07;;;;;;;6.30;4.50;;;;;;;35.19;24.71;100969.52;107837;1256;66081;-67
2024/04/11 10:21:38;;;;;;;7.70;4.60;;;;;;;35.14;24.50;100972.55;107827;1260;61807;-67
2024/04/11 10:24:23;;;;;;;6.80;4.20;;;;;;;35.18;24.59;100976.97;107840;1256;64143;-67
2024/04/11 10:26:50;;;;;;;10.50;4.50;;;;;;;35.23;24.51;100972.70;107878;1256;61199;-67
2024/04/11 10:29:20;;;;;;;9.30;4.80;;;;;;;35.15;24.61;100976.10;107852;1256;60961;-67
2024/04/11 10:31:58;;;;;;;10.60;4.50;;;;;;;35.19;24.80;100978.33;107880;1256;66043;-67
2024/04/11 10:35:14;;;;;;;7.90;4.40;;;;;;;35.35;24.82;100971.91;107848;1257;60988;-67
2024/04/11 10:37:12;;;;;;;6.60;4.20;;;;;;;35.32;24.59;100977.24;107563;1258;65614;-67
2024/04/11 10:39:39;;;;;;;6.70;3.90;;;;;;;35.34;24.23;100976.38;107838;1256;61227;-67
2024/04/11 10:42:10;;;;;;;9.50;4.00;;;;;;;35.43;24.19;100971.34;107676;1256;61120;-68
2024/04/11 10:44:37;;;;;;;8.60;4.20;;;;;;;35.57;23.88;100980.09;107909;1256;66157;-68
2024/04/11 10:47:07;;;;;;;7.60;4.00;;;;;;;35.57;23.85;100976.26;107860;1256;63136;-68
2024/04/11 10:49:37;;;;;;;10.90;4.40;;;;;;;35.56;23.67;100975.87;107643;1261;64118;-67
2024/04/11 10:52:05;;;;;;;14.90;4.10;;;;;;;35.64;23.65;100975.97;107843;1262;61152;-68
2024/04/11 10:54:32;;;;;;;6.00;3.80;;;;;;;35.69;23.70;100977.09;107849;1260;61244;-68
2024/04/11 10:56:59;;;;;;;6.30;3.60;;;;;;;35.49;23.62;100973.58;107822;1260;66030;-67
2024/04/11 10:59:32;;;;;;;7.60;3.40;;;;;;;35.41;23.91;100976.98;107570;1256;61636;-67
2024/04/11 11:02:07;;;;;;;6.20;3.80;;;;;;;35.45;23.88;100977.55;107651;1257;63923;-67
2024/04/11 11:04:34;;;;;;;7.00;3.40;;;;;;;35.45;23.58;100975.84;107645;1256;61096;-67
2024/04/11 11:07:10;;;;;;;11.20;4.00;;;;;;;35.45;23.86;100980.75;107724;1257;60076;-67
2024/04/11 11:09:42;;;;;;;6.30;3.70;;;;;;;35.45;23.74;100981.84;107688;1256;66529;-68
2024/04/11 11:12:12;;;;;;;15.40;3.80;;;;;;;35.61;23.55;100983.99;107927;1256;62908;-67
2024/04/11 11:14:40;;;;;;;6.90;3.60;;;;;;;35.87;23.55;100985.77;107912;1256;73801;-67
2024/04/11 11:17:07;;;;;;;7.80;3.40;;;;;;;35.97;23.24;100983.80;107883;1257;59145;-68
2024/04/11 11:19:37;;;;;;;9.70;3.20;;;;;;;36.10;22.81;100983.06;107907;1260;61225;-68
2024/04/11 11:22:04;;;;;;;8.50;3.30;;;;;;;36.06;22.47;100986.84;107888;1260;65150;-67